Time;durP1;ratioP1;P1;durP2;ratioP2;P2;SDS_P1;SDS_P2;PMS_P1;PMS_P2;Temp;Humidity;BMP_temperature;BMP_pressure;BME280_temperature;BME280_humidity;BME280_pressure;Samples;Min_cycle;Max_cycle;Signal;HPM_P1;HPM_P2
2023/12/23 00:02:10;;;;;;;16.40;1.77;;;7.40;99.90;;;;;;5108785;28;20530;-55
2023/12/23 00:04:36;;;;;;;16.48;1.48;;;7.30;99.90;;;;;;5127104;28;20047;-52
2023/12/23 00:07:02;;;;;;;12.95;2.92;;;7.30;99.90;;;;;;5109298;27;20042;-54
2023/12/23 00:09:28;;;;;;;12.30;1.40;;;7.30;99.90;;;;;;5108263;28;20479;-52
2023/12/23 00:11:54;;;;;;;14.10;1.50;;;7.30;99.90;;;;;;5108619;28;20039;-54
2023/12/23 00:14:20;;;;;;;10.85;1.85;;;7.20;99.90;;;;;;5108096;28;20028;-53
2023/12/23 00:16:45;;;;;;;12.20;1.52;;;7.20;99.90;;;;;;5108222;28;20028;-51
2023/12/23 00:19:11;;;;;;;11.60;1.60;;;7.70;99.90;;;;;;5108318;28;20180;-56
2023/12/23 00:21:37;;;;;;;14.23;1.23;;;7.40;99.90;;;;;;5126088;28;20036;-56
2023/12/23 00:24:03;;;;;;;14.80;2.70;;;7.20;99.90;;;;;;5121989;27;20043;-55
2023/12/23 00:26:28;;;;;;;12.95;1.83;;;7.40;99.90;;;;;;5108094;28;20411;-54
2023/12/23 00:28:54;;;;;;;12.05;1.50;;;7.40;99.90;;;;;;5125719;28;20047;-54
2023/12/23 00:31:20;;;;;;;11.18;1.45;;;7.40;99.90;;;;;;5128379;27;20035;-55
2023/12/23 00:33:48;;;;;;;11.73;1.48;;;7.30;99.90;;;;;;5117340;27;20388;-53
2023/12/23 00:36:13;;;;;;;12.82;1.23;;;7.30;99.90;;;;;;5107555;28;20058;-51
2023/12/23 00:38:39;;;;;;;9.15;1.55;;;7.30;99.90;;;;;;5107950;28;20027;-51
2023/12/23 00:41:05;;;;;;;5.93;1.00;;;7.30;99.90;;;;;;5107953;28;20036;-50
2023/12/23 00:43:30;;;;;;;9.40;1.25;;;7.30;99.90;;;;;;5088680;28;20039;-53
2023/12/23 00:45:56;;;;;;;12.68;1.58;;;7.40;99.90;;;;;;5107582;28;20387;-55
2023/12/23 00:48:22;;;;;;;13.10;1.50;;;7.80;99.90;;;;;;5107357;28;20054;-55
2023/12/23 00:50:47;;;;;;;6.43;1.20;;;7.50;99.90;;;;;;5107667;28;20058;-54
2023/12/23 00:53:13;;;;;;;13.15;1.90;;;7.30;99.90;;;;;;5107529;28;20071;-55
2023/12/23 00:55:39;;;;;;;13.32;1.77;;;7.30;99.90;;;;;;5107087;28;20035;-53
2023/12/23 00:58:04;;;;;;;13.45;1.50;;;7.50;99.90;;;;;;5125831;28;20040;-53
2023/12/23 01:00:30;;;;;;;9.90;1.38;;;7.50;99.90;;;;;;5119393;27;20050;-54
2023/12/23 01:02:56;;;;;;;17.05;1.85;;;7.40;99.90;;;;;;5114376;28;20040;-51
2023/12/23 01:05:21;;;;;;;13.50;1.77;;;7.40;99.90;;;;;;5103587;28;20407;-53
2023/12/23 01:07:47;;;;;;;14.48;1.33;;;7.50;99.90;;;;;;5093731;28;20377;-51
2023/12/23 01:10:13;;;;;;;13.70;1.83;;;7.40;99.90;;;;;;5111397;28;20445;-54
2023/12/23 01:12:39;;;;;;;15.05;1.20;;;7.50;99.90;;;;;;5114036;28;20043;-52
2023/12/23 01:15:05;;;;;;;12.30;1.70;;;7.50;99.90;;;;;;5112162;28;20035;-52
2023/12/23 01:17:31;;;;;;;11.80;1.42;;;7.40;99.90;;;;;;5093363;28;20490;-53
2023/12/23 01:19:56;;;;;;;10.23;1.35;;;7.50;99.90;;;;;;5111878;28;20048;-55
2023/12/23 01:22:22;;;;;;;10.13;1.33;;;7.30;99.90;;;;;;5102053;28;20044;-53
2023/12/23 01:24:48;;;;;;;13.63;1.75;;;7.30;99.90;;;;;;5111429;28;20064;-51
2023/12/23 01:27:14;;;;;;;10.95;1.65;;;7.30;99.90;;;;;;5113702;28;20073;-52
2023/12/23 01:29:40;;;;;;;13.57;1.40;;;7.50;99.90;;;;;;5113623;28;20072;-51
2023/12/23 01:32:06;;;;;;;14.93;1.30;;;7.20;99.90;;;;;;5112728;28;20066;-54
2023/12/23 01:34:31;;;;;;;11.10;1.27;;;7.40;99.90;;;;;;5113913;28;20489;-54
2023/12/23 01:36:57;;;;;;;9.63;1.13;;;7.50;99.90;;;;;;5113736;27;20038;-53
2023/12/23 01:39:23;;;;;;;15.98;1.75;;;7.30;99.90;;;;;;5102870;28;20040;-55
2023/12/23 01:41:49;;;;;;;14.05;1.40;;;7.30;99.90;;;;;;5093238;28;20040;-55
2023/12/23 01:44:15;;;;;;;13.77;1.23;;;7.50;99.90;;;;;;5092530;28;20036;-53
2023/12/23 01:46:40;;;;;;;11.13;1.20;;;7.50;99.90;;;;;;5112038;28;20111;-55
2023/12/23 01:49:07;;;;;;;15.75;2.13;;;7.40;99.90;;;;;;5113043;28;20233;-53
2023/12/23 01:51:33;;;;;;;14.43;1.65;;;7.40;99.90;;;;;;5113190;28;20050;-50
2023/12/23 01:54:04;;;;;;;10.88;1.38;;;7.40;99.90;;;;;;5113282;28;20023;-52
2023/12/23 01:56:31;;;;;;;11.02;1.10;;;7.40;99.90;;;;;;5113141;28;20073;-54
2023/12/23 01:58:57;;;;;;;4.38;0.88;;;7.20;99.90;;;;;;5108273;28;20445;-53
2023/12/23 02:01:23;;;;;;;7.47;1.30;;;7.40;99.90;;;;;;5092677;28;20817;-55
2023/12/23 02:03:49;;;;;;;7.68;1.15;;;7.30;99.90;;;;;;5092548;28;20036;-51
2023/12/23 02:06:14;;;;;;;10.18;1.10;;;7.40;99.90;;;;;;5092630;28;20475;-52
2023/12/23 02:08:40;;;;;;;9.88;1.23;;;7.10;99.90;;;;;;5092584;28;20046;-53
2023/12/23 02:11:06;;;;;;;15.40;0.90;;;7.40;99.90;;;;;;5092198;28;20387;-56
2023/12/23 02:13:45;;;;;;;12.32;1.63;;;7.10;99.90;;;;;;5091575;28;20044;-52
2023/12/23 02:16:12;;;;;;;12.27;1.02;;;7.40;99.90;;;;;;5092383;28;20070;-51
2023/12/23 02:18:40;;;;;;;10.13;2.15;;;7.00;99.90;;;;;;5092724;28;20614;-53
2023/12/23 02:21:05;;;;;;;9.23;1.08;;;6.90;99.90;;;;;;5092515;28;20035;-55
2023/12/23 02:23:31;;;;;;;10.30;1.50;;;6.90;99.90;;;;;;5092097;28;20078;-53
2023/12/23 02:26:00;;;;;;;10.48;1.27;;;7.60;99.90;;;;;;5092293;28;20078;-53
2023/12/23 02:28:26;;;;;;;10.70;1.63;;;7.20;99.90;;;;;;5092022;28;20040;-53
2023/12/23 02:30:53;;;;;;;16.13;1.10;;;7.10;99.90;;;;;;5110962;28;20039;-53
2023/12/23 02:33:19;;;;;;;9.13;1.00;;;7.30;99.90;;;;;;5112513;28;20039;-55
2023/12/23 02:35:52;;;;;;;6.50;1.25;;;6.80;99.90;;;;;;5092129;28;20361;-55
2023/12/23 02:38:19;;;;;;;7.18;0.95;;;7.30;99.90;;;;;;5104514;28;20395;-53
2023/12/23 02:40:45;;;;;;;11.88;1.35;;;7.30;99.90;;;;;;5091261;28;20047;-53
2023/12/23 02:43:10;;;;;;;10.95;1.20;;;6.70;99.90;;;;;;5091532;28;20040;-51
2023/12/23 02:45:36;;;;;;;7.32;0.82;;;7.20;99.90;;;;;;5091851;28;20027;-54
2023/12/23 02:48:03;;;;;;;9.52;0.77;;;7.20;99.90;;;;;;5091643;28;20059;-54
2023/12/23 02:50:28;;;;;;;7.10;0.93;;;7.20;99.90;;;;;;5092017;28;20446;-53
2023/12/23 02:52:54;;;;;;;6.70;1.08;;;6.70;99.90;;;;;;5091945;28;20044;-55
2023/12/23 02:55:20;;;;;;;10.20;0.70;;;7.30;99.90;;;;;;5091843;28;20032;-53
2023/12/23 02:57:45;;;;;;;9.27;0.95;;;7.10;99.90;;;;;;5091879;28;20036;-53
2023/12/23 03:00:12;;;;;;;13.05;1.25;;;6.60;99.90;;;;;;5091676;28;20114;-55
2023/12/23 03:02:38;;;;;;;11.15;1.42;;;6.60;99.90;;;;;;5091252;28;20036;-55
2023/12/23 03:05:05;;;;;;;8.63;0.85;;;7.30;99.90;;;;;;5091114;28;20412;-52
2023/12/23 03:07:30;;;;;;;10.75;1.35;;;7.00;99.90;;;;;;5091278;28;20411;-57
2023/12/23 03:09:56;;;;;;;10.98;1.00;;;7.50;99.90;;;;;;5091586;28;20032;-54
2023/12/23 03:12:22;;;;;;;7.95;0.95;;;7.40;99.90;;;;;;5091473;28;20115;-56
2023/12/23 03:14:47;;;;;;;9.23;0.85;;;6.90;99.90;;;;;;5091139;28;20066;-56
2023/12/23 03:17:13;;;;;;;13.20;1.08;;;7.00;99.90;;;;;;5091492;28;20036;-57
2023/12/23 03:19:41;;;;;;;9.02;0.90;;;7.10;99.90;;;;;;5091115;28;20090;-53
2023/12/23 03:22:07;;;;;;;10.05;1.00;;;6.50;99.90;;;;;;5091197;28;20050;-54
2023/12/23 03:24:33;;;;;;;9.00;0.90;;;6.60;99.90;;;;;;5108247;28;20044;-56
2023/12/23 03:26:58;;;;;;;9.88;1.20;;;7.10;99.90;;;;;;5111637;28;20039;-58
2023/12/23 03:29:24;;;;;;;6.13;0.70;;;7.40;99.90;;;;;;5109185;28;20512;-55
2023/12/23 03:31:50;;;;;;;6.28;1.50;;;6.70;99.90;;;;;;5090476;28;20437;-57
2023/12/23 03:34:15;;;;;;;11.48;1.05;;;7.20;99.90;;;;;;5091107;28;20039;-58
2023/12/23 03:36:41;;;;;;;6.13;0.75;;;7.10;99.90;;;;;;5090483;28;20028;-54
2023/12/23 03:39:07;;;;;;;11.80;0.90;;;7.30;99.90;;;;;;5090738;28;20043;-57
2023/12/23 03:41:32;;;;;;;6.70;0.90;;;7.00;99.90;;;;;;5090952;28;20059;-55
2023/12/23 03:43:58;;;;;;;9.52;1.08;;;6.60;99.90;;;;;;5090776;28;20048;-56
2023/12/23 03:46:26;;;;;;;10.32;0.93;;;6.50;99.90;;;;;;5091806;28;20047;-58
2023/12/23 03:48:52;;;;;;;12.48;1.00;;;7.40;99.90;;;;;;5090674;28;20047;-55
2023/12/23 03:51:18;;;;;;;8.77;0.95;;;7.30;99.90;;;;;;5091062;28;21322;-55
2023/12/23 03:53:43;;;;;;;8.32;1.25;;;6.70;99.90;;;;;;5105181;28;20038;-58
2023/12/23 03:56:09;;;;;;;11.85;1.48;;;7.30;99.90;;;;;;5089452;28;20043;-53
2023/12/23 03:58:35;;;;;;;5.63;1.02;;;7.20;99.90;;;;;;5088879;28;20036;-55
2023/12/23 04:01:00;;;;;;;8.88;1.25;;;7.30;99.90;;;;;;5089135;28;20075;-51
2023/12/23 04:03:26;;;;;;;6.25;1.05;;;6.90;99.90;;;;;;5090268;28;20048;-59
2023/12/23 04:05:52;;;;;;;8.63;1.50;;;6.80;99.90;;;;;;5090520;28;20032;-54
2023/12/23 04:08:17;;;;;;;14.80;1.33;;;7.10;99.90;;;;;;5090842;28;20048;-54
2023/12/23 04:10:43;;;;;;;6.53;1.45;;;6.70;99.90;;;;;;5090414;28;20032;-55
2023/12/23 04:13:09;;;;;;;8.57;1.48;;;6.70;99.90;;;;;;5090260;28;20036;-59
2023/12/23 04:15:34;;;;;;;7.45;0.88;;;6.70;99.90;;;;;;5090415;28;20036;-55
2023/12/23 04:18:00;;;;;;;7.15;1.70;;;6.60;99.90;;;;;;5090942;28;20119;-54
2023/12/23 04:20:25;;;;;;;6.93;1.40;;;7.40;99.90;;;;;;5090459;28;20064;-56
2023/12/23 04:22:51;;;;;;;10.75;1.60;;;6.70;99.90;;;;;;5090618;28;20043;-59
2023/12/23 04:25:17;;;;;;;8.93;1.70;;;6.60;99.90;;;;;;5090683;28;20383;-55
2023/12/23 04:27:42;;;;;;;11.10;2.45;;;7.50;99.90;;;;;;5090833;28;20083;-58
2023/12/23 04:30:08;;;;;;;6.88;2.25;;;7.40;99.90;;;;;;5090749;28;20036;-55
2023/12/23 04:32:34;;;;;;;10.13;2.67;;;7.40;99.90;;;;;;5090781;28;20503;-56
2023/12/23 04:35:00;;;;;;;8.80;2.90;;;7.50;99.90;;;;;;5091416;28;20078;-59
2023/12/23 04:37:26;;;;;;;13.48;3.45;;;6.90;99.90;;;;;;5094622;28;20047;-56
2023/12/23 04:39:53;;;;;;;10.95;3.33;;;7.80;99.90;;;;;;5094124;28;20089;-55
2023/12/23 04:42:18;;;;;;;16.38;3.72;;;8.40;99.90;;;;;;5104136;28;20048;-55
2023/12/23 04:44:44;;;;;;;12.70;3.42;;;8.50;99.90;;;;;;5093409;28;20047;-57
2023/12/23 04:47:10;;;;;;;15.60;4.03;;;8.60;99.90;;;;;;5111956;28;20043;-55
2023/12/23 04:49:35;;;;;;;20.55;4.72;;;8.40;99.90;;;;;;5114113;28;20051;-55
2023/12/23 04:52:01;;;;;;;14.45;4.50;;;9.20;99.90;;;;;;5114548;28;20028;-57
2023/12/23 04:54:27;;;;;;;18.05;4.90;;;8.70;99.90;;;;;;5114352;28;20595;-58
2023/12/23 04:56:53;;;;;;;16.92;4.05;;;9.40;99.90;;;;;;5114263;28;20079;-53
2023/12/23 04:59:19;;;;;;;18.95;5.28;;;9.50;99.90;;;;;;5114321;28;20099;-56
2023/12/23 05:01:44;;;;;;;17.92;4.97;;;8.80;99.90;;;;;;5112146;28;20184;-56
2023/12/23 05:04:10;;;;;;;18.45;4.47;;;9.40;99.90;;;;;;5093588;28;20492;-57
2023/12/23 05:06:36;;;;;;;19.70;4.68;;;9.60;99.90;;;;;;5093556;28;20085;-56
2023/12/23 05:09:02;;;;;;;17.33;3.42;;;9.50;99.90;;;;;;5093822;28;20502;-56
2023/12/23 05:11:28;;;;;;;19.73;4.28;;;8.90;99.90;;;;;;5108138;28;20032;-58
2023/12/23 05:13:53;;;;;;;17.02;4.22;;;9.00;99.90;;;;;;5093295;28;20036;-57
2023/12/23 05:16:19;;;;;;;18.20;4.32;;;9.70;99.90;;;;;;5093718;28;20032;-59
2023/12/23 05:18:45;;;;;;;18.73;3.40;;;9.10;99.90;;;;;;5093589;28;20032;-58
2023/12/23 05:21:10;;;;;;;23.30;4.63;;;9.70;99.90;;;;;;5093084;28;20085;-59
2023/12/23 05:23:36;;;;;;;16.60;3.80;;;9.10;99.90;;;;;;5093192;28;20055;-58
2023/12/23 05:26:02;;;;;;;14.20;3.50;;;9.00;99.90;;;;;;5092794;28;20059;-57
2023/12/23 05:28:27;;;;;;;14.88;3.17;;;9.00;99.90;;;;;;5092150;28;20093;-57
2023/12/23 05:30:53;;;;;;;28.88;4.13;;;9.00;99.90;;;;;;5092993;28;20570;-59
2023/12/23 05:33:19;;;;;;;24.42;4.38;;;9.80;99.90;;;;;;5093738;28;20062;-57
2023/12/23 05:35:45;;;;;;;21.20;3.30;;;9.20;99.90;;;;;;5092134;28;20562;-56
2023/12/23 05:38:11;;;;;;;20.25;3.45;;;9.10;99.90;;;;;;5093010;28;20046;-56
2023/12/23 05:40:37;;;;;;;23.50;3.75;;;9.70;99.90;;;;;;5092433;28;20071;-56
2023/12/23 05:43:03;;;;;;;22.38;3.85;;;9.90;99.90;;;;;;5093281;28;20083;-54
2023/12/23 05:45:29;;;;;;;20.73;4.15;;;9.10;99.90;;;;;;5092155;28;20095;-58
2023/12/23 05:47:54;;;;;;;23.38;4.10;;;9.10;99.90;;;;;;5093375;28;20394;-55
2023/12/23 05:50:20;;;;;;;20.90;3.90;;;9.20;99.90;;;;;;5113684;28;20513;-56
2023/12/23 05:52:45;;;;;;;24.48;3.75;;;9.20;99.90;;;;;;5108125;28;20028;-57
2023/12/23 05:55:11;;;;;;;25.25;4.07;;;9.30;99.90;;;;;;5110494;28;20095;-55
2023/12/23 05:57:37;;;;;;;23.20;4.40;;;9.50;99.90;;;;;;5113190;28;20086;-59
2023/12/23 06:00:07;;;;;;;19.10;4.20;;;9.60;99.90;;;;;;5113204;28;20042;-52
2023/12/23 06:02:33;;;;;;;27.50;4.55;;;9.20;99.90;;;;;;5113422;28;20104;-57
2023/12/23 06:04:58;;;;;;;32.13;4.82;;;9.80;99.90;;;;;;5113038;28;20118;-55
2023/12/23 06:07:24;;;;;;;21.70;4.28;;;10.00;99.90;;;;;;5092433;28;20040;-56
2023/12/23 06:09:49;;;;;;;21.85;5.70;;;9.70;99.90;;;;;;5091908;28;20070;-58
2023/12/23 06:12:15;;;;;;;17.17;3.10;;;9.60;99.90;;;;;;5092676;28;20036;-58
2023/12/23 06:14:41;;;;;;;21.95;3.38;;;9.40;99.90;;;;;;5109670;28;20114;-53
2023/12/23 06:17:08;;;;;;;25.08;3.75;;;9.50;99.90;;;;;;5113097;28;20122;-56
2023/12/23 06:19:34;;;;;;;22.02;5.00;;;9.30;99.90;;;;;;5112672;28;20047;-58
2023/12/23 06:22:00;;;;;;;32.00;5.03;;;9.20;99.90;;;;;;5111462;28;20050;-58
2023/12/23 06:24:25;;;;;;;27.13;3.92;;;9.20;99.90;;;;;;5111968;28;20068;-57
2023/12/23 06:26:51;;;;;;;17.63;3.15;;;9.80;99.90;;;;;;5091889;28;20036;-59
2023/12/23 06:29:17;;;;;;;17.73;3.75;;;9.50;99.90;;;;;;5091622;28;20043;-59
2023/12/23 06:31:42;;;;;;;25.85;4.60;;;9.50;99.90;;;;;;5092220;28;20043;-58
2023/12/23 06:34:08;;;;;;;22.65;3.72;;;9.60;99.90;;;;;;5108099;28;20035;-58
2023/12/23 06:36:34;;;;;;;16.10;3.50;;;10.10;99.90;;;;;;5088028;28;20047;-58
2023/12/23 06:38:59;;;;;;;19.15;3.72;;;9.80;99.90;;;;;;5090764;28;20036;-59
2023/12/23 06:41:25;;;;;;;21.00;3.38;;;10.20;99.90;;;;;;5086017;28;20046;-58
2023/12/23 06:43:51;;;;;;;19.27;3.47;;;9.70;99.90;;;;;;5091091;28;20040;-57
2023/12/23 06:46:17;;;;;;;22.98;3.35;;;9.60;99.90;;;;;;5095109;28;20460;-57
2023/12/23 06:48:43;;;;;;;13.63;3.22;;;10.30;99.90;;;;;;5107658;28;20079;-56
2023/12/23 06:51:08;;;;;;;23.35;3.45;;;10.20;99.90;;;;;;5112310;28;20409;-56
2023/12/23 06:53:34;;;;;;;17.45;3.38;;;9.90;99.90;;;;;;5112125;28;20073;-59
2023/12/23 06:56:04;;;;;;;16.00;3.60;;;9.60;99.90;;;;;;5092724;28;20538;-56
2023/12/23 06:58:30;;;;;;;16.30;3.53;;;9.80;99.90;;;;;;5090925;28;20048;-57
2023/12/23 07:00:55;;;;;;;22.98;4.03;;;9.50;99.90;;;;;;5091663;28;20131;-59
2023/12/23 07:03:21;;;;;;;17.80;3.80;;;10.00;99.90;;;;;;5091854;28;20078;-56
2023/12/23 07:05:47;;;;;;;16.60;3.05;;;9.50;99.90;;;;;;5090860;28;20040;-57
2023/12/23 07:08:13;;;;;;;16.80;3.78;;;10.20;99.90;;;;;;5090705;28;20048;-57
2023/12/23 07:10:39;;;;;;;19.55;3.47;;;9.90;99.90;;;;;;5090062;28;20067;-58
2023/12/23 07:13:05;;;;;;;16.17;3.28;;;10.10;99.90;;;;;;5090368;28;20079;-56
2023/12/23 07:15:30;;;;;;;18.90;3.55;;;10.40;99.90;;;;;;5107737;28;20039;-58
2023/12/23 07:17:56;;;;;;;15.80;2.90;;;10.30;99.90;;;;;;5110638;28;20108;-56
2023/12/23 07:20:21;;;;;;;20.23;3.78;;;9.90;99.90;;;;;;5110936;28;20474;-58
2023/12/23 07:22:48;;;;;;;20.77;3.78;;;9.60;99.90;;;;;;5110148;28;20550;-57
2023/12/23 07:25:14;;;;;;;13.75;3.03;;;9.80;99.90;;;;;;5111199;28;20133;-59
2023/12/23 07:27:39;;;;;;;22.35;3.45;;;10.20;99.90;;;;;;5110836;28;20123;-58
2023/12/23 07:30:05;;;;;;;18.90;3.00;;;9.90;99.90;;;;;;5093313;28;20032;-59
2023/12/23 07:32:31;;;;;;;24.48;3.30;;;9.50;99.90;;;;;;5082732;28;20814;-59
2023/12/23 07:34:57;;;;;;;26.25;3.53;;;9.50;99.90;;;;;;5081242;28;20083;-57
2023/12/23 07:37:22;;;;;;;35.95;4.20;;;9.70;99.90;;;;;;5083447;28;20032;-59
2023/12/23 07:39:48;;;;;;;19.30;4.22;;;10.00;99.90;;;;;;5082642;28;20028;-55
2023/12/23 07:42:14;;;;;;;29.25;3.70;;;10.20;99.90;;;;;;5078126;28;20161;-56
2023/12/23 07:44:39;;;;;;;15.23;2.70;;;9.80;99.90;;;;;;5080673;28;20039;-57
2023/12/23 07:47:05;;;;;;;23.40;3.67;;;10.40;99.90;;;;;;5081823;28;20685;-59
2023/12/23 07:49:32;;;;;;;22.20;3.85;;;10.00;99.90;;;;;;5082148;28;20596;-55
2023/12/23 07:51:58;;;;;;;18.90;3.92;;;9.70;99.90;;;;;;5081229;28;20071;-57
2023/12/23 07:54:25;;;;;;;22.15;3.63;;;9.70;99.90;;;;;;5081275;28;20040;-53
2023/12/23 07:56:51;;;;;;;16.05;2.85;;;9.90;99.90;;;;;;5081668;28;20067;-56
2023/12/23 07:59:17;;;;;;;21.38;3.10;;;10.50;99.90;;;;;;5083662;28;20040;-57
2023/12/23 08:01:46;;;;;;;15.70;3.13;;;10.30;99.90;;;;;;5082535;28;20044;-56
2023/12/23 08:04:13;;;;;;;15.60;2.97;;;9.70;99.90;;;;;;5081733;28;20032;-52
2023/12/23 08:06:39;;;;;;;20.90;2.90;;;10.50;99.90;;;;;;5080509;28;20150;-58
2023/12/23 08:09:05;;;;;;;25.90;3.40;;;10.10;99.90;;;;;;5073292;28;20048;-54
2023/12/23 08:11:30;;;;;;;20.50;3.40;;;9.80;99.90;;;;;;5080773;28;20411;-55
2023/12/23 08:13:56;;;;;;;22.50;3.10;;;9.90;99.90;;;;;;5081543;28;20024;-52
2023/12/23 08:16:22;;;;;;;15.18;2.28;;;9.70;99.90;;;;;;5085079;28;20074;-54
2023/12/23 08:18:48;;;;;;;14.40;2.42;;;10.50;99.90;;;;;;5080565;28;20111;-56
2023/12/23 08:21:14;;;;;;;20.88;3.35;;;10.40;99.90;;;;;;5086005;28;20031;-55
2023/12/23 08:23:40;;;;;;;20.27;3.13;;;10.30;99.90;;;;;;5084571;28;20385;-55
2023/12/23 08:26:06;;;;;;;17.27;2.70;;;10.60;99.90;;;;;;5081735;28;20044;-56
2023/12/23 08:28:31;;;;;;;22.98;3.58;;;9.90;99.90;;;;;;5078867;28;20063;-55
2023/12/23 08:30:57;;;;;;;19.52;2.65;;;10.50;99.90;;;;;;5083507;28;20036;-58
2023/12/23 08:33:23;;;;;;;23.85;2.97;;;10.40;99.90;;;;;;5083032;28;20235;-55
2023/12/23 08:35:49;;;;;;;25.83;2.97;;;9.90;99.90;;;;;;5081374;28;20047;-53
2023/12/23 08:38:15;;;;;;;14.68;2.80;;;10.00;99.90;;;;;;5084389;28;20040;-56
2023/12/23 08:40:40;;;;;;;20.27;3.45;;;10.20;99.90;;;;;;5082526;28;20039;-55
2023/12/23 08:43:06;;;;;;;23.48;3.38;;;9.90;99.90;;;;;;5085135;28;20027;-59
2023/12/23 08:45:32;;;;;;;17.15;3.00;;;10.20;99.90;;;;;;5084494;28;20228;-53
2023/12/23 08:47:57;;;;;;;18.10;3.08;;;10.60;99.90;;;;;;5085349;28;20040;-53
2023/12/23 08:50:23;;;;;;;20.83;3.17;;;10.50;99.90;;;;;;5084575;28;20048;-54
2023/12/23 08:52:49;;;;;;;23.55;3.13;;;10.40;99.90;;;;;;5085361;28;20028;-57
2023/12/23 08:55:15;;;;;;;24.88;3.13;;;10.50;99.90;;;;;;5084765;28;20591;-55
2023/12/23 08:57:41;;;;;;;19.83;2.58;;;9.80;99.90;;;;;;5085374;28;20506;-59
2023/12/23 09:00:07;;;;;;;21.35;3.00;;;9.80;99.90;;;;;;5083663;28;20047;-56
2023/12/23 09:02:34;;;;;;;28.50;3.47;;;9.70;99.90;;;;;;5084686;28;20032;-56
2023/12/23 09:05:00;;;;;;;17.38;2.88;;;9.70;99.90;;;;;;5081928;28;20047;-58
2023/12/23 09:07:25;;;;;;;16.73;2.40;;;9.90;99.90;;;;;;5083868;28;20036;-59
2023/12/23 09:09:51;;;;;;;9.82;2.92;;;9.60;99.90;;;;;;5082896;28;20127;-57
2023/12/23 09:12:19;;;;;;;20.45;2.58;;;10.40;99.90;;;;;;5085595;28;24034;-57
2023/12/23 09:14:45;;;;;;;15.82;2.85;;;10.40;99.90;;;;;;5084903;28;20040;-58
2023/12/23 09:17:12;;;;;;;11.13;2.28;;;9.90;99.90;;;;;;5083769;28;20472;-57
2023/12/23 09:19:38;;;;;;;17.15;2.97;;;9.60;99.90;;;;;;5084468;28;20048;-54
2023/12/23 09:22:04;;;;;;;27.17;3.13;;;10.40;99.90;;;;;;5084946;28;20043;-57
2023/12/23 09:24:29;;;;;;;17.80;3.63;;;9.70;99.90;;;;;;5082690;28;20070;-57
2023/12/23 09:26:55;;;;;;;17.55;2.33;;;10.40;99.90;;;;;;5083970;28;20554;-57
2023/12/23 09:29:21;;;;;;;15.75;2.25;;;10.10;99.90;;;;;;5080958;28;20032;-58
2023/12/23 09:31:47;;;;;;;15.45;2.35;;;9.90;99.90;;;;;;5083111;28;20055;-54
2023/12/23 09:34:12;;;;;;;16.77;1.80;;;10.00;99.90;;;;;;5084613;28;20032;-58
2023/12/23 09:36:38;;;;;;;20.38;2.60;;;10.30;99.90;;;;;;5084935;28;20433;-58
2023/12/23 09:39:04;;;;;;;19.20;3.50;;;10.40;99.90;;;;;;5084409;28;20518;-55
2023/12/23 09:41:32;;;;;;;18.38;2.30;;;10.30;99.90;;;;;;5085148;28;20482;-55
2023/12/23 09:43:58;;;;;;;12.02;2.55;;;10.10;99.90;;;;;;5083293;28;20036;-57
2023/12/23 09:46:24;;;;;;;19.35;2.90;;;10.50;99.90;;;;;;5083339;28;20036;-57
2023/12/23 09:48:49;;;;;;;21.23;2.20;;;10.30;99.90;;;;;;5084059;28;20422;-56
2023/12/23 09:51:17;;;;;;;15.65;2.75;;;10.50;99.90;;;;;;5085021;28;20039;-52
2023/12/23 09:53:46;;;;;;;13.57;2.60;;;10.10;99.90;;;;;;5084074;28;20526;-56
2023/12/23 09:56:11;;;;;;;12.95;2.60;;;10.60;99.90;;;;;;5082036;28;20415;-54
2023/12/23 09:58:37;;;;;;;17.02;2.70;;;10.40;99.90;;;;;;5083744;28;20044;-57
2023/12/23 10:01:03;;;;;;;16.88;2.85;;;10.10;99.90;;;;;;5081771;28;20963;-54
2023/12/23 10:03:29;;;;;;;14.07;2.80;;;10.60;99.90;;;;;;5083956;28;20067;-57
2023/12/23 10:06:01;;;;;;;18.83;2.40;;;10.10;99.90;;;;;;5084805;28;20402;-57
2023/12/23 10:08:28;;;;;;;15.52;2.95;;;10.00;99.90;;;;;;5082312;28;20168;-55
2023/12/23 10:10:54;;;;;;;21.85;2.85;;;10.10;99.90;;;;;;5084231;28;20518;-52
2023/12/23 10:13:20;;;;;;;15.85;2.63;;;10.20;99.90;;;;;;5082873;28;20146;-57
2023/12/23 10:15:46;;;;;;;21.63;3.83;;;10.40;99.90;;;;;;5083188;28;20032;-56
2023/12/23 10:18:12;;;;;;;17.77;2.97;;;10.70;99.90;;;;;;5083389;28;20181;-57
2023/12/23 10:20:41;;;;;;;18.48;2.47;;;10.30;99.90;;;;;;5083050;28;20036;-57
2023/12/23 10:23:08;;;;;;;18.95;3.03;;;10.30;99.90;;;;;;5082308;28;20039;-56
2023/12/23 10:25:34;;;;;;;14.90;2.65;;;10.20;99.90;;;;;;5083484;28;20422;-55
2023/12/23 10:28:01;;;;;;;17.45;2.00;;;10.30;99.90;;;;;;5083280;28;20521;-53
2023/12/23 10:30:29;;;;;;;18.48;2.50;;;10.10;99.90;;;;;;5082432;28;20458;-58
2023/12/23 10:33:03;;;;;;;18.08;2.80;;;10.30;99.90;;;;;;5082037;28;20058;-54
2023/12/23 10:35:36;;;;;;;21.38;2.83;;;10.20;99.90;;;;;;5083945;28;20055;-56
2023/12/23 10:38:07;;;;;;;15.00;2.35;;;10.40;99.90;;;;;;5082133;28;20037;-55
2023/12/23 10:40:33;;;;;;;19.15;3.08;;;10.30;99.90;;;;;;5080325;28;20123;-56
2023/12/23 10:43:01;;;;;;;22.65;2.67;;;10.70;99.90;;;;;;5070235;28;20578;-58
2023/12/23 10:45:27;;;;;;;14.00;2.58;;;10.40;99.90;;;;;;5065044;28;20033;-57
2023/12/23 10:47:53;;;;;;;14.15;2.65;;;10.50;99.90;;;;;;5079631;28;20070;-53
2023/12/23 10:50:19;;;;;;;13.60;2.22;;;10.50;99.90;;;;;;5081478;28;20048;-57
2023/12/23 10:52:45;;;;;;;15.55;2.28;;;10.80;99.90;;;;;;5080934;28;20123;-58
2023/12/23 10:55:11;;;;;;;16.83;2.65;;;10.60;99.90;;;;;;5079107;28;20101;-55
2023/12/23 10:57:39;;;;;;;17.15;2.30;;;10.60;99.90;;;;;;5079971;28;20428;-55
2023/12/23 11:00:06;;;;;;;20.08;2.35;;;10.80;99.90;;;;;;5079846;28;20032;-59
2023/12/23 11:02:35;;;;;;;15.32;2.60;;;10.70;99.90;;;;;;5079715;28;20039;-52
2023/12/23 11:05:06;;;;;;;11.02;1.98;;;10.70;99.90;;;;;;5079913;28;20436;-55
2023/12/23 11:07:39;;;;;;;14.77;2.50;;;10.60;99.90;;;;;;5081780;28;20427;-56
2023/12/23 11:10:06;;;;;;;21.80;2.42;;;10.80;99.90;;;;;;5080960;28;20036;-55
2023/12/23 11:12:33;;;;;;;18.08;2.53;;;10.60;99.90;;;;;;5079304;28;20168;-55
2023/12/23 11:15:00;;;;;;;15.73;2.30;;;10.80;99.90;;;;;;5079033;28;20035;-56
2023/12/23 11:17:27;;;;;;;17.23;2.53;;;10.60;99.90;;;;;;5075758;28;20519;-53
2023/12/23 11:20:01;;;;;;;19.88;3.00;;;10.80;99.90;;;;;;5077480;28;20047;-56
2023/12/23 11:22:36;;;;;;;14.55;2.65;;;10.80;99.90;;;;;;5082178;28;20032;-59
2023/12/23 11:25:02;;;;;;;15.93;1.98;;;10.80;99.90;;;;;;5080085;28;20032;-55
2023/12/23 11:27:33;;;;;;;16.27;2.47;;;10.80;99.90;;;;;;5082767;28;20111;-55
2023/12/23 11:30:01;;;;;;;21.08;2.75;;;10.80;99.90;;;;;;5081404;28;20044;-54
2023/12/23 11:32:33;;;;;;;19.77;2.65;;;10.80;99.90;;;;;;5081944;28;20036;-58
2023/12/23 11:35:00;;;;;;;20.08;2.53;;;10.80;99.90;;;;;;5080743;28;20523;-56
2023/12/23 11:37:49;;;;;;;16.80;2.30;;;10.60;99.90;;;;;;5081588;28;20068;-59
2023/12/23 11:40:16;;;;;;;24.90;3.15;;;10.80;99.90;;;;;;5081897;28;20043;-55
2023/12/23 11:42:43;;;;;;;22.27;2.80;;;10.90;99.90;;;;;;5080947;28;20193;-55
2023/12/23 11:45:12;;;;;;;19.25;2.33;;;10.90;99.90;;;;;;5079838;28;20036;-58
2023/12/23 11:47:39;;;;;;;16.92;3.08;;;10.30;99.90;;;;;;5081286;28;20444;-54
2023/12/23 11:50:05;;;;;;;18.60;2.45;;;10.70;99.90;;;;;;5081082;28;20117;-54
2023/12/23 11:52:32;;;;;;;14.50;2.28;;;10.70;99.90;;;;;;5081415;28;20028;-56
2023/12/23 11:54:58;;;;;;;16.58;2.55;;;10.90;99.90;;;;;;5081884;28;20032;-55
2023/12/23 11:57:23;;;;;;;21.42;3.60;;;11.00;99.90;;;;;;5074533;28;20036;-52
2023/12/23 11:59:50;;;;;;;26.08;3.65;;;11.00;99.90;;;;;;5077906;28;20475;-56
2023/12/23 12:02:15;;;;;;;17.10;2.88;;;10.80;99.90;;;;;;5076534;28;20032;-57
2023/12/23 12:04:41;;;;;;;26.77;4.15;;;11.10;99.90;;;;;;5073251;28;20039;-58
2023/12/23 12:07:07;;;;;;;13.15;2.45;;;11.00;99.90;;;;;;5073137;28;20040;-56
2023/12/23 12:09:34;;;;;;;17.77;2.20;;;11.00;99.90;;;;;;5075566;28;20173;-58
2023/12/23 12:11:59;;;;;;;13.20;2.60;;;11.00;99.90;;;;;;5076791;28;20051;-55
2023/12/23 12:14:28;;;;;;;17.52;2.60;;;10.90;99.90;;;;;;5075451;28;20048;-55
2023/12/23 12:16:54;;;;;;;17.65;2.60;;;11.10;99.90;;;;;;5075943;28;20048;-56
2023/12/23 12:19:20;;;;;;;17.35;3.38;;;11.10;99.90;;;;;;5074888;28;20148;-54
2023/12/23 12:21:46;;;;;;;17.30;2.20;;;11.00;99.90;;;;;;5076544;28;20693;-55
2023/12/23 12:24:11;;;;;;;17.92;2.40;;;11.00;99.90;;;;;;5075598;28;20439;-59
2023/12/23 12:26:37;;;;;;;16.23;2.42;;;11.00;99.90;;;;;;5074682;28;20119;-57
2023/12/23 12:29:06;;;;;;;16.58;2.30;;;11.00;99.90;;;;;;5075078;28;20047;-58
2023/12/23 12:31:32;;;;;;;14.93;2.28;;;10.90;99.90;;;;;;5075187;28;20364;-52
2023/12/23 12:33:58;;;;;;;17.08;2.65;;;11.10;99.90;;;;;;5076957;28;20036;-58
2023/12/23 12:36:24;;;;;;;15.73;2.10;;;11.00;99.90;;;;;;5072409;28;20325;-55
2023/12/23 12:38:50;;;;;;;20.00;2.47;;;10.90;99.90;;;;;;5075292;28;20131;-56
2023/12/23 12:41:16;;;;;;;17.38;3.40;;;10.90;99.90;;;;;;5076761;28;20140;-57